首页
METAR-TAF:

METAR-TAF

机场 :

哈立德国王国际机场

利雅德, 沙特阿拉伯

纬度: 24-56N, 经度: 046-43E, 海拔: 614米

当前天气观测

该预报发布于41分钟前的00:00 UTC
风速3节,风向
温度 16°C
湿度 82%
气压 1017 hPa
能见度10公里或以上
散云层高于4000英尺

METAR: OERK 080000Z 36003KT 9999 SCT040 16/13 Q1017 NOSIG

时间: 03:41 (00:41 UTC)

预报

该预报发布于1小时和41分钟前的23:00 UTC
预报有效从08日的 00点(UTC)到 09日的 06点(UTC)
风速5节,风向,有时为15节阵风
能見度: 8000
散云层高于4000英尺
散云层高于10000英尺
短暂存在
从 08日的 00点(UTC)到 08日的 06点(UTC)
能見度: 3000
少量云层高于3500英尺, 积雨云.
多云层高于4000英尺
轻雾, 雷暴
几率 30% :
短暂存在
从 08日的 00点(UTC)到 08日的 05点(UTC)
能見度: 1000

TAF: OERK 072300Z 0800/0906 35005G15KT 8000 SCT040 SCT100 TEMPO 0800/0806 3000 BR TS FEW035CB BKN040 PROB30 TEMPO 0800/0805 1000 FG

超过4000个机场的气象观测和天气预报(METAR&TAF报告)。

可查询的气象台以黄色和红色小点在地图上表示。

将鼠标移到小点上方,可查看气象台名称。

然后点击查看天气观测和预报。

如需切换地图:点击带黑十字的绿色按钮放大地图;点击带横线的绿色按钮缩小地图;或者点击绿色箭头查看邻近地区的地图。


METAR-TAF: